sensor_id;sensor_type;location;lat;lon;timestamp;P1;durP1;ratioP1;P2;durP2;ratioP2
39128;SDS011;24864;49.940;19.770;2023-06-22T00:00:32;10.50;;;8.07;;
39128;SDS011;24864;49.940;19.770;2023-06-22T00:03:22;9.80;;;7.22;;
39128;SDS011;24864;49.940;19.770;2023-06-22T00:05:52;10.52;;;7.53;;
39128;SDS011;24864;49.940;19.770;2023-06-22T00:08:20;9.68;;;8.52;;
39128;SDS011;24864;49.940;19.770;2023-06-22T00:10:48;9.95;;;7.47;;
39128;SDS011;24864;49.940;19.770;2023-06-22T00:13:17;13.25;;;8.73;;
39128;SDS011;24864;49.940;19.770;2023-06-22T00:15:45;9.35;;;8.38;;
39128;SDS011;24864;49.940;19.770;2023-06-22T00:18:13;12.27;;;8.07;;
39128;SDS011;24864;49.940;19.770;2023-06-22T00:20:41;10.82;;;7.63;;
39128;SDS011;24864;49.940;19.770;2023-06-22T00:23:13;10.35;;;8.40;;
39128;SDS011;24864;49.940;19.770;2023-06-22T00:25:42;11.18;;;7.88;;
39128;SDS011;24864;49.940;19.770;2023-06-22T00:28:10;11.88;;;7.55;;
39128;SDS011;24864;49.940;19.770;2023-06-22T00:30:38;9.32;;;7.63;;
39128;SDS011;24864;49.940;19.770;2023-06-22T00:33:06;9.15;;;8.25;;
39128;SDS011;24864;49.940;19.770;2023-06-22T00:35:35;12.73;;;8.23;;
39128;SDS011;24864;49.940;19.770;2023-06-22T00:38:03;11.18;;;7.00;;
39128;SDS011;24864;49.940;19.770;2023-06-22T00:40:32;6.60;;;5.78;;
39128;SDS011;24864;49.940;19.770;2023-06-22T00:43:01;9.77;;;5.57;;
39128;SDS011;24864;49.940;19.770;2023-06-22T00:45:29;9.73;;;7.45;;
39128;SDS011;24864;49.940;19.770;2023-06-22T00:47:58;10.13;;;7.30;;
39128;SDS011;24864;49.940;19.770;2023-06-22T00:50:26;8.85;;;7.30;;
39128;SDS011;24864;49.940;19.770;2023-06-22T00:53:01;7.93;;;7.10;;
39128;SDS011;24864;49.940;19.770;2023-06-22T00:55:36;8.90;;;7.53;;
39128;SDS011;24864;49.940;19.770;2023-06-22T00:58:06;9.50;;;7.47;;
39128;SDS011;24864;49.940;19.770;2023-06-22T01:03:39;12.65;;;8.25;;
39128;SDS011;24864;49.940;19.770;2023-06-22T01:06:08;9.57;;;7.78;;
39128;SDS011;24864;49.940;19.770;2023-06-22T01:08:42;9.70;;;8.07;;
39128;SDS011;24864;49.940;19.770;2023-06-22T01:11:16;12.68;;;7.72;;
39128;SDS011;24864;49.940;19.770;2023-06-22T01:16:17;12.98;;;8.48;;
39128;SDS011;24864;49.940;19.770;2023-06-22T01:18:49;12.63;;;7.88;;
39128;SDS011;24864;49.940;19.770;2023-06-22T01:21:20;10.60;;;8.13;;
39128;SDS011;24864;49.940;19.770;2023-06-22T01:23:58;13.70;;;8.60;;
39128;SDS011;24864;49.940;19.770;2023-06-22T01:26:46;11.07;;;9.98;;
39128;SDS011;24864;49.940;19.770;2023-06-22T01:29:23;10.73;;;9.48;;
39128;SDS011;24864;49.940;19.770;2023-06-22T01:31:52;10.95;;;8.80;;
39128;SDS011;24864;49.940;19.770;2023-06-22T01:34:22;16.38;;;8.98;;
39128;SDS011;24864;49.940;19.770;2023-06-22T01:36:51;10.85;;;8.88;;
39128;SDS011;24864;49.940;19.770;2023-06-22T01:39:19;10.88;;;9.68;;
39128;SDS011;24864;49.940;19.770;2023-06-22T01:41:48;12.23;;;8.70;;
39128;SDS011;24864;49.940;19.770;2023-06-22T01:44:16;10.32;;;8.80;;
39128;SDS011;24864;49.940;19.770;2023-06-22T01:46:46;10.82;;;7.70;;
39128;SDS011;24864;49.940;19.770;2023-06-22T01:49:16;10.32;;;7.50;;
39128;SDS011;24864;49.940;19.770;2023-06-22T01:51:45;10.38;;;7.53;;
39128;SDS011;24864;49.940;19.770;2023-06-22T01:54:13;11.73;;;6.47;;
39128;SDS011;24864;49.940;19.770;2023-06-22T01:56:41;8.07;;;5.95;;
39128;SDS011;24864;49.940;19.770;2023-06-22T01:59:11;8.35;;;6.90;;
39128;SDS011;24864;49.940;19.770;2023-06-22T02:01:42;8.88;;;6.88;;
39128;SDS011;24864;49.940;19.770;2023-06-22T02:04:13;12.35;;;8.18;;
39128;SDS011;24864;49.940;19.770;2023-06-22T02:06:47;8.35;;;7.03;;
39128;SDS011;24864;49.940;19.770;2023-06-22T02:09:19;9.90;;;7.63;;
39128;SDS011;24864;49.940;19.770;2023-06-22T02:11:48;12.55;;;7.65;;
39128;SDS011;24864;49.940;19.770;2023-06-22T02:14:21;10.45;;;6.68;;
39128;SDS011;24864;49.940;19.770;2023-06-22T02:16:50;9.75;;;7.68;;
39128;SDS011;24864;49.940;19.770;2023-06-22T02:19:23;11.10;;;7.13;;
39128;SDS011;24864;49.940;19.770;2023-06-22T02:21:52;8.75;;;6.43;;
39128;SDS011;24864;49.940;19.770;2023-06-22T02:24:20;7.65;;;6.88;;
39128;SDS011;24864;49.940;19.770;2023-06-22T02:26:50;7.85;;;6.13;;
39128;SDS011;24864;49.940;19.770;2023-06-22T02:29:18;8.60;;;6.10;;
39128;SDS011;24864;49.940;19.770;2023-06-22T02:31:46;8.77;;;6.03;;
39128;SDS011;24864;49.940;19.770;2023-06-22T02:34:14;10.55;;;6.63;;
39128;SDS011;24864;49.940;19.770;2023-06-22T02:36:46;13.68;;;6.75;;
39128;SDS011;24864;49.940;19.770;2023-06-22T02:39:21;9.43;;;6.20;;
39128;SDS011;24864;49.940;19.770;2023-06-22T02:41:51;9.02;;;5.78;;
39128;SDS011;24864;49.940;19.770;2023-06-22T02:44:20;9.75;;;6.05;;
39128;SDS011;24864;49.940;19.770;2023-06-22T02:46:48;7.90;;;5.90;;
39128;SDS011;24864;49.940;19.770;2023-06-22T02:49:16;8.48;;;7.07;;
39128;SDS011;24864;49.940;19.770;2023-06-22T02:51:45;8.43;;;5.75;;
39128;SDS011;24864;49.940;19.770;2023-06-22T02:54:15;9.90;;;6.18;;
39128;SDS011;24864;49.940;19.770;2023-06-22T02:56:44;12.02;;;6.10;;
39128;SDS011;24864;49.940;19.770;2023-06-22T02:59:12;8.93;;;5.88;;
39128;SDS011;24864;49.940;19.770;2023-06-22T03:01:40;7.60;;;6.63;;
39128;SDS011;24864;49.940;19.770;2023-06-22T03:04:08;13.20;;;6.68;;
39128;SDS011;24864;49.940;19.770;2023-06-22T03:06:37;10.52;;;6.55;;
39128;SDS011;24864;49.940;19.770;2023-06-22T03:09:08;11.63;;;6.38;;
39128;SDS011;24864;49.940;19.770;2023-06-22T03:11:37;9.00;;;6.28;;
39128;SDS011;24864;49.940;19.770;2023-06-22T03:14:05;10.88;;;6.40;;
39128;SDS011;24864;49.940;19.770;2023-06-22T03:16:33;9.73;;;6.53;;
39128;SDS011;24864;49.940;19.770;2023-06-22T03:19:01;9.55;;;5.97;;
39128;SDS011;24864;49.940;19.770;2023-06-22T03:21:29;12.55;;;6.38;;
39128;SDS011;24864;49.940;19.770;2023-06-22T03:23:58;10.60;;;7.07;;
39128;SDS011;24864;49.940;19.770;2023-06-22T03:26:28;14.88;;;6.95;;
39128;SDS011;24864;49.940;19.770;2023-06-22T03:28:56;12.68;;;6.57;;
39128;SDS011;24864;49.940;19.770;2023-06-22T03:31:24;10.60;;;7.43;;
39128;SDS011;24864;49.940;19.770;2023-06-22T03:33:53;10.63;;;7.10;;
39128;SDS011;24864;49.940;19.770;2023-06-22T03:36:22;9.15;;;7.00;;
39128;SDS011;24864;49.940;19.770;2023-06-22T03:38:51;13.52;;;7.43;;
39128;SDS011;24864;49.940;19.770;2023-06-22T03:41:19;12.30;;;6.50;;
39128;SDS011;24864;49.940;19.770;2023-06-22T03:43:48;10.18;;;7.47;;
39128;SDS011;24864;49.940;19.770;2023-06-22T03:46:16;13.90;;;7.20;;
39128;SDS011;24864;49.940;19.770;2023-06-22T03:48:46;9.60;;;6.70;;
39128;SDS011;24864;49.940;19.770;2023-06-22T03:51:14;12.10;;;7.00;;
39128;SDS011;24864;49.940;19.770;2023-06-22T03:53:42;9.77;;;7.13;;
39128;SDS011;24864;49.940;19.770;2023-06-22T03:56:11;18.50;;;8.32;;
39128;SDS011;24864;49.940;19.770;2023-06-22T03:58:39;10.77;;;7.30;;
39128;SDS011;24864;49.940;19.770;2023-06-22T04:01:11;19.55;;;7.10;;
39128;SDS011;24864;49.940;19.770;2023-06-22T04:03:39;8.52;;;6.93;;
39128;SDS011;24864;49.940;19.770;2023-06-22T04:06:08;10.35;;;7.28;;
39128;SDS011;24864;49.940;19.770;2023-06-22T04:08:36;10.27;;;7.25;;
39128;SDS011;24864;49.940;19.770;2023-06-22T04:11:04;12.10;;;7.75;;
39128;SDS011;24864;49.940;19.770;2023-06-22T04:13:32;10.32;;;7.88;;
39128;SDS011;24864;49.940;19.770;2023-06-22T04:16:01;12.35;;;8.23;;
39128;SDS011;24864;49.940;19.770;2023-06-22T04:18:30;8.88;;;7.78;;
39128;SDS011;24864;49.940;19.770;2023-06-22T04:20:58;14.25;;;8.18;;
39128;SDS011;24864;49.940;19.770;2023-06-22T04:23:26;14.82;;;9.30;;
39128;SDS011;24864;49.940;19.770;2023-06-22T04:25:54;13.63;;;8.32;;
39128;SDS011;24864;49.940;19.770;2023-06-22T04:28:24;13.77;;;8.75;;
39128;SDS011;24864;49.940;19.770;2023-06-22T04:30:54;10.40;;;7.60;;
39128;SDS011;24864;49.940;19.770;2023-06-22T04:33:24;14.13;;;8.45;;
39128;SDS011;24864;49.940;19.770;2023-06-22T04:35:54;15.32;;;8.82;;
39128;SDS011;24864;49.940;19.770;2023-06-22T04:38:23;12.27;;;8.35;;
39128;SDS011;24864;49.940;19.770;2023-06-22T04:40:52;10.60;;;7.93;;
39128;SDS011;24864;49.940;19.770;2023-06-22T04:43:20;16.33;;;8.23;;
39128;SDS011;24864;49.940;19.770;2023-06-22T04:45:48;15.52;;;9.43;;
39128;SDS011;24864;49.940;19.770;2023-06-22T04:48:18;13.15;;;8.43;;
39128;SDS011;24864;49.940;19.770;2023-06-22T04:50:46;12.65;;;8.02;;
39128;SDS011;24864;49.940;19.770;2023-06-22T04:53:16;14.75;;;8.00;;
39128;SDS011;24864;49.940;19.770;2023-06-22T04:55:44;10.52;;;7.68;;
39128;SDS011;24864;49.940;19.770;2023-06-22T04:58:15;9.45;;;8.07;;
39128;SDS011;24864;49.940;19.770;2023-06-22T05:00:46;10.77;;;8.30;;
39128;SDS011;24864;49.940;19.770;2023-06-22T05:03:17;13.05;;;8.15;;
39128;SDS011;24864;49.940;19.770;2023-06-22T05:05:46;10.38;;;7.65;;
39128;SDS011;24864;49.940;19.770;2023-06-22T05:08:16;20.65;;;8.48;;
39128;SDS011;24864;49.940;19.770;2023-06-22T05:10:44;14.13;;;7.55;;
39128;SDS011;24864;49.940;19.770;2023-06-22T05:13:30;16.38;;;8.50;;
39128;SDS011;24864;49.940;19.770;2023-06-22T05:15:58;17.95;;;8.00;;
39128;SDS011;24864;49.940;19.770;2023-06-22T05:18:29;16.30;;;7.95;;
39128;SDS011;24864;49.940;19.770;2023-06-22T05:20:58;10.50;;;7.97;;
39128;SDS011;24864;49.940;19.770;2023-06-22T05:23:27;13.02;;;8.77;;
39128;SDS011;24864;49.940;19.770;2023-06-22T05:25:56;10.52;;;7.85;;
39128;SDS011;24864;49.940;19.770;2023-06-22T05:28:25;13.70;;;8.23;;
39128;SDS011;24864;49.940;19.770;2023-06-22T05:30:53;17.40;;;8.60;;
39128;SDS011;24864;49.940;19.770;2023-06-22T05:33:21;14.02;;;8.50;;
39128;SDS011;24864;49.940;19.770;2023-06-22T05:35:50;15.55;;;8.70;;
39128;SDS011;24864;49.940;19.770;2023-06-22T05:38:18;17.48;;;9.60;;
39128;SDS011;24864;49.940;19.770;2023-06-22T05:40:47;13.55;;;9.05;;
39128;SDS011;24864;49.940;19.770;2023-06-22T05:43:15;19.40;;;9.27;;
39128;SDS011;24864;49.940;19.770;2023-06-22T05:45:44;19.10;;;9.27;;
39128;SDS011;24864;49.940;19.770;2023-06-22T05:48:12;12.25;;;9.73;;
39128;SDS011;24864;49.940;19.770;2023-06-22T05:50:40;17.70;;;10.32;;
39128;SDS011;24864;49.940;19.770;2023-06-22T05:53:08;19.13;;;10.27;;
39128;SDS011;24864;49.940;19.770;2023-06-22T05:55:36;17.25;;;10.73;;
39128;SDS011;24864;49.940;19.770;2023-06-22T05:58:05;12.02;;;10.05;;
39128;SDS011;24864;49.940;19.770;2023-06-22T06:00:34;16.02;;;10.38;;
39128;SDS011;24864;49.940;19.770;2023-06-22T06:03:02;15.30;;;9.77;;
39128;SDS011;24864;49.940;19.770;2023-06-22T06:05:31;17.77;;;11.13;;
39128;SDS011;24864;49.940;19.770;2023-06-22T06:08:00;19.65;;;12.32;;
39128;SDS011;24864;49.940;19.770;2023-06-22T06:10:29;21.65;;;11.27;;
39128;SDS011;24864;49.940;19.770;2023-06-22T06:12:58;18.02;;;11.52;;
39128;SDS011;24864;49.940;19.770;2023-06-22T06:15:30;17.30;;;11.35;;
39128;SDS011;24864;49.940;19.770;2023-06-22T06:17:58;19.90;;;12.02;;
39128;SDS011;24864;49.940;19.770;2023-06-22T06:20:26;21.02;;;11.05;;
39128;SDS011;24864;49.940;19.770;2023-06-22T06:22:56;16.15;;;10.98;;
39128;SDS011;24864;49.940;19.770;2023-06-22T06:25:24;19.23;;;11.70;;
39128;SDS011;24864;49.940;19.770;2023-06-22T06:27:52;18.45;;;11.77;;
39128;SDS011;24864;49.940;19.770;2023-06-22T06:30:22;14.00;;;10.82;;
39128;SDS011;24864;49.940;19.770;2023-06-22T06:32:51;18.90;;;11.63;;
39128;SDS011;24864;49.940;19.770;2023-06-22T06:35:19;20.88;;;12.27;;
39128;SDS011;24864;49.940;19.770;2023-06-22T06:37:49;16.77;;;11.18;;
39128;SDS011;24864;49.940;19.770;2023-06-22T06:40:17;18.83;;;11.85;;
39128;SDS011;24864;49.940;19.770;2023-06-22T06:42:46;25.98;;;12.35;;
39128;SDS011;24864;49.940;19.770;2023-06-22T06:45:16;19.27;;;14.02;;
39128;SDS011;24864;49.940;19.770;2023-06-22T06:47:45;19.85;;;13.43;;
39128;SDS011;24864;49.940;19.770;2023-06-22T06:50:15;19.98;;;13.73;;
39128;SDS011;24864;49.940;19.770;2023-06-22T06:52:44;18.83;;;16.70;;
39128;SDS011;24864;49.940;19.770;2023-06-22T06:55:12;22.15;;;18.17;;
39128;SDS011;24864;49.940;19.770;2023-06-22T06:57:40;21.77;;;16.65;;
39128;SDS011;24864;49.940;19.770;2023-06-22T07:00:10;18.83;;;16.52;;
39128;SDS011;24864;49.940;19.770;2023-06-22T07:02:51;26.77;;;17.42;;
39128;SDS011;24864;49.940;19.770;2023-06-22T07:05:21;25.10;;;17.92;;
39128;SDS011;24864;49.940;19.770;2023-06-22T07:07:49;21.20;;;17.23;;
39128;SDS011;24864;49.940;19.770;2023-06-22T07:10:20;21.30;;;16.52;;
39128;SDS011;24864;49.940;19.770;2023-06-22T07:12:48;22.17;;;17.75;;
39128;SDS011;24864;49.940;19.770;2023-06-22T07:15:16;31.17;;;18.58;;
39128;SDS011;24864;49.940;19.770;2023-06-22T07:17:44;27.67;;;19.42;;
39128;SDS011;24864;49.940;19.770;2023-06-22T07:20:12;22.08;;;17.38;;
39128;SDS011;24864;49.940;19.770;2023-06-22T07:22:43;26.40;;;18.33;;
39128;SDS011;24864;49.940;19.770;2023-06-22T07:27:43;24.23;;;18.45;;
39128;SDS011;24864;49.940;19.770;2023-06-22T07:30:12;25.33;;;18.80;;
39128;SDS011;24864;49.940;19.770;2023-06-22T07:32:41;26.52;;;17.92;;
39128;SDS011;24864;49.940;19.770;2023-06-22T07:35:09;26.38;;;18.42;;
39128;SDS011;24864;49.940;19.770;2023-06-22T07:37:37;22.80;;;17.05;;
39128;SDS011;24864;49.940;19.770;2023-06-22T07:40:07;21.95;;;17.58;;
39128;SDS011;24864;49.940;19.770;2023-06-22T07:42:36;21.65;;;17.55;;
39128;SDS011;24864;49.940;19.770;2023-06-22T07:45:05;20.02;;;18.00;;
39128;SDS011;24864;49.940;19.770;2023-06-22T07:47:34;27.63;;;18.85;;
39128;SDS011;24864;49.940;19.770;2023-06-22T07:50:03;21.20;;;17.08;;
39128;SDS011;24864;49.940;19.770;2023-06-22T07:52:32;25.45;;;19.20;;
39128;SDS011;24864;49.940;19.770;2023-06-22T07:55:00;27.55;;;20.35;;
39128;SDS011;24864;49.940;19.770;2023-06-22T07:57:30;29.40;;;19.70;;
39128;SDS011;24864;49.940;19.770;2023-06-22T08:00:03;27.50;;;19.17;;
39128;SDS011;24864;49.940;19.770;2023-06-22T08:02:38;31.65;;;24.05;;
39128;SDS011;24864;49.940;19.770;2023-06-22T08:05:07;27.55;;;21.25;;
39128;SDS011;24864;49.940;19.770;2023-06-22T08:07:47;28.38;;;20.63;;
39128;SDS011;24864;49.940;19.770;2023-06-22T08:10:16;28.65;;;20.65;;
39128;SDS011;24864;49.940;19.770;2023-06-22T08:12:46;26.00;;;20.38;;
39128;SDS011;24864;49.940;19.770;2023-06-22T08:15:14;31.20;;;21.30;;
39128;SDS011;24864;49.940;19.770;2023-06-22T08:17:43;22.67;;;19.00;;
39128;SDS011;24864;49.940;19.770;2023-06-22T08:20:12;26.35;;;20.85;;
39128;SDS011;24864;49.940;19.770;2023-06-22T08:22:40;26.70;;;20.05;;
39128;SDS011;24864;49.940;19.770;2023-06-22T08:25:09;28.08;;;20.15;;
39128;SDS011;24864;49.940;19.770;2023-06-22T08:27:38;27.60;;;20.83;;
39128;SDS011;24864;49.940;19.770;2023-06-22T08:30:09;29.00;;;21.88;;
39128;SDS011;24864;49.940;19.770;2023-06-22T08:32:38;23.65;;;19.52;;
39128;SDS011;24864;49.940;19.770;2023-06-22T08:35:07;27.30;;;20.30;;
39128;SDS011;24864;49.940;19.770;2023-06-22T08:37:36;26.55;;;20.02;;
39128;SDS011;24864;49.940;19.770;2023-06-22T08:40:07;23.20;;;19.98;;
39128;SDS011;24864;49.940;19.770;2023-06-22T08:42:36;20.92;;;18.27;;
39128;SDS011;24864;49.940;19.770;2023-06-22T08:45:05;29.63;;;20.17;;
39128;SDS011;24864;49.940;19.770;2023-06-22T08:47:35;22.77;;;19.65;;
39128;SDS011;24864;49.940;19.770;2023-06-22T08:50:04;28.90;;;21.55;;
39128;SDS011;24864;49.940;19.770;2023-06-22T08:52:34;38.08;;;21.58;;
39128;SDS011;24864;49.940;19.770;2023-06-22T08:55:03;26.70;;;19.92;;
39128;SDS011;24864;49.940;19.770;2023-06-22T08:57:31;26.38;;;21.88;;
39128;SDS011;24864;49.940;19.770;2023-06-22T09:00:00;34.17;;;23.70;;
39128;SDS011;24864;49.940;19.770;2023-06-22T09:02:30;27.08;;;22.13;;
39128;SDS011;24864;49.940;19.770;2023-06-22T09:05:03;34.85;;;27.02;;
39128;SDS011;24864;49.940;19.770;2023-06-22T09:07:32;31.75;;;28.35;;
39128;SDS011;24864;49.940;19.770;2023-06-22T09:10:01;32.22;;;27.30;;
39128;SDS011;24864;49.940;19.770;2023-06-22T09:12:31;34.13;;;27.13;;
39128;SDS011;24864;49.940;19.770;2023-06-22T09:14:59;32.15;;;28.10;;
39128;SDS011;24864;49.940;19.770;2023-06-22T09:17:29;32.90;;;28.80;;
39128;SDS011;24864;49.940;19.770;2023-06-22T09:19:57;35.65;;;27.90;;
39128;SDS011;24864;49.940;19.770;2023-06-22T09:22:27;36.60;;;28.67;;
39128;SDS011;24864;49.940;19.770;2023-06-22T09:24:55;29.67;;;26.58;;
39128;SDS011;24864;49.940;19.770;2023-06-22T09:27:23;32.58;;;25.80;;
39128;SDS011;24864;49.940;19.770;2023-06-22T09:29:52;30.33;;;27.02;;
39128;SDS011;24864;49.940;19.770;2023-06-22T09:32:20;27.98;;;25.23;;
39128;SDS011;24864;49.940;19.770;2023-06-22T09:34:48;23.52;;;21.35;;
39128;SDS011;24864;49.940;19.770;2023-06-22T09:37:16;24.55;;;22.35;;
39128;SDS011;24864;49.940;19.770;2023-06-22T09:39:45;29.10;;;25.33;;
39128;SDS011;24864;49.940;19.770;2023-06-22T09:42:13;29.67;;;25.88;;
39128;SDS011;24864;49.940;19.770;2023-06-22T09:44:42;29.10;;;26.15;;
39128;SDS011;24864;49.940;19.770;2023-06-22T09:47:10;26.40;;;23.90;;
39128;SDS011;24864;49.940;19.770;2023-06-22T09:49:38;27.55;;;24.65;;
39128;SDS011;24864;49.940;19.770;2023-06-22T09:52:09;27.17;;;23.83;;
39128;SDS011;24864;49.940;19.770;2023-06-22T09:54:38;26.80;;;23.65;;
39128;SDS011;24864;49.940;19.770;2023-06-22T09:57:07;25.58;;;23.23;;
39128;SDS011;24864;49.940;19.770;2023-06-22T09:59:35;25.15;;;22.83;;
39128;SDS011;24864;49.940;19.770;2023-06-22T10:02:03;25.23;;;22.95;;
39128;SDS011;24864;49.940;19.770;2023-06-22T10:04:33;26.08;;;23.67;;
39128;SDS011;24864;49.940;19.770;2023-06-22T10:07:02;26.65;;;24.23;;
39128;SDS011;24864;49.940;19.770;2023-06-22T10:09:30;24.60;;;22.02;;
39128;SDS011;24864;49.940;19.770;2023-06-22T10:11:58;26.08;;;23.65;;
39128;SDS011;24864;49.940;19.770;2023-06-22T10:14:28;26.70;;;23.90;;
39128;SDS011;24864;49.940;19.770;2023-06-22T10:16:56;26.13;;;23.35;;
39128;SDS011;24864;49.940;19.770;2023-06-22T10:19:25;26.02;;;23.33;;
39128;SDS011;24864;49.940;19.770;2023-06-22T10:21:53;25.50;;;22.83;;
39128;SDS011;24864;49.940;19.770;2023-06-22T10:24:22;27.98;;;24.10;;
39128;SDS011;24864;49.940;19.770;2023-06-22T10:26:50;28.13;;;24.52;;
39128;SDS011;24864;49.940;19.770;2023-06-22T10:29:18;26.20;;;23.65;;
39128;SDS011;24864;49.940;19.770;2023-06-22T10:31:48;27.38;;;24.58;;
39128;SDS011;24864;49.940;19.770;2023-06-22T10:34:16;27.92;;;25.00;;
39128;SDS011;24864;49.940;19.770;2023-06-22T10:36:44;26.65;;;23.95;;
39128;SDS011;24864;49.940;19.770;2023-06-22T10:39:15;28.00;;;25.23;;
39128;SDS011;24864;49.940;19.770;2023-06-22T10:41:43;26.67;;;23.92;;
39128;SDS011;24864;49.940;19.770;2023-06-22T10:44:11;26.30;;;23.98;;
39128;SDS011;24864;49.940;19.770;2023-06-22T10:46:39;26.55;;;24.20;;
39128;SDS011;24864;49.940;19.770;2023-06-22T10:49:09;26.00;;;23.25;;
39128;SDS011;24864;49.940;19.770;2023-06-22T10:51:37;26.58;;;24.05;;
39128;SDS011;24864;49.940;19.770;2023-06-22T10:54:05;26.15;;;23.67;;
39128;SDS011;24864;49.940;19.770;2023-06-22T10:56:33;27.20;;;24.40;;
39128;SDS011;24864;49.940;19.770;2023-06-22T10:59:01;26.25;;;23.50;;
39128;SDS011;24864;49.940;19.770;2023-06-22T11:01:29;25.58;;;23.00;;
39128;SDS011;24864;49.940;19.770;2023-06-22T11:04:02;25.92;;;23.52;;
39128;SDS011;24864;49.940;19.770;2023-06-22T11:06:33;28.27;;;23.90;;
39128;SDS011;24864;49.940;19.770;2023-06-22T11:09:01;26.67;;;24.08;;
39128;SDS011;24864;49.940;19.770;2023-06-22T11:11:50;26.13;;;23.48;;
39128;SDS011;24864;49.940;19.770;2023-06-22T11:14:20;27.00;;;24.52;;
39128;SDS011;24864;49.940;19.770;2023-06-22T11:16:48;25.98;;;23.55;;
39128;SDS011;24864;49.940;19.770;2023-06-22T11:19:16;25.63;;;22.80;;
39128;SDS011;24864;49.940;19.770;2023-06-22T11:21:46;25.92;;;23.38;;
39128;SDS011;24864;49.940;19.770;2023-06-22T11:24:14;27.83;;;23.85;;
39128;SDS011;24864;49.940;19.770;2023-06-22T11:26:43;25.05;;;22.75;;
39128;SDS011;24864;49.940;19.770;2023-06-22T11:29:11;24.58;;;22.00;;
39128;SDS011;24864;49.940;19.770;2023-06-22T11:31:57;23.20;;;21.10;;
39128;SDS011;24864;49.940;19.770;2023-06-22T11:34:26;22.15;;;19.95;;
39128;SDS011;24864;49.940;19.770;2023-06-22T11:36:55;21.05;;;19.25;;
39128;SDS011;24864;49.940;19.770;2023-06-22T11:39:24;21.33;;;19.15;;
39128;SDS011;24864;49.940;19.770;2023-06-22T11:42:06;21.58;;;19.58;;
39128;SDS011;24864;49.940;19.770;2023-06-22T11:44:35;21.00;;;19.05;;
39128;SDS011;24864;49.940;19.770;2023-06-22T11:47:03;22.30;;;18.60;;
39128;SDS011;24864;49.940;19.770;2023-06-22T11:49:32;20.27;;;18.48;;
39128;SDS011;24864;49.940;19.770;2023-06-22T11:52:02;20.08;;;17.98;;
39128;SDS011;24864;49.940;19.770;2023-06-22T11:54:30;20.67;;;18.73;;
39128;SDS011;24864;49.940;19.770;2023-06-22T11:56:58;20.13;;;18.38;;
39128;SDS011;24864;49.940;19.770;2023-06-22T11:59:26;21.27;;;19.25;;
39128;SDS011;24864;49.940;19.770;2023-06-22T12:01:54;20.48;;;18.77;;
39128;SDS011;24864;49.940;19.770;2023-06-22T12:04:22;24.27;;;19.27;;
39128;SDS011;24864;49.940;19.770;2023-06-22T12:06:51;19.52;;;17.77;;
39128;SDS011;24864;49.940;19.770;2023-06-22T12:09:20;20.50;;;18.67;;
39128;SDS011;24864;49.940;19.770;2023-06-22T12:11:48;20.00;;;18.20;;
39128;SDS011;24864;49.940;19.770;2023-06-22T12:14:18;20.45;;;18.65;;
39128;SDS011;24864;49.940;19.770;2023-06-22T12:16:46;21.65;;;19.58;;
39128;SDS011;24864;49.940;19.770;2023-06-22T12:19:15;20.13;;;18.23;;
39128;SDS011;24864;49.940;19.770;2023-06-22T12:21:43;20.90;;;18.95;;
39128;SDS011;24864;49.940;19.770;2023-06-22T12:24:12;20.35;;;18.25;;
39128;SDS011;24864;49.940;19.770;2023-06-22T12:26:42;20.48;;;18.55;;
39128;SDS011;24864;49.940;19.770;2023-06-22T12:29:10;20.90;;;18.70;;
39128;SDS011;24864;49.940;19.770;2023-06-22T12:31:38;19.58;;;17.88;;
39128;SDS011;24864;49.940;19.770;2023-06-22T12:34:08;20.67;;;17.35;;
39128;SDS011;24864;49.940;19.770;2023-06-22T12:36:36;19.17;;;17.25;;
39128;SDS011;24864;49.940;19.770;2023-06-22T12:39:04;24.08;;;17.63;;
39128;SDS011;24864;49.940;19.770;2023-06-22T12:41:32;20.55;;;18.65;;
39128;SDS011;24864;49.940;19.770;2023-06-22T12:44:02;20.85;;;18.48;;
39128;SDS011;24864;49.940;19.770;2023-06-22T12:46:30;22.33;;;17.77;;
39128;SDS011;24864;49.940;19.770;2023-06-22T12:49:04;18.65;;;16.83;;
39128;SDS011;24864;49.940;19.770;2023-06-22T12:51:32;20.05;;;18.17;;
39128;SDS011;24864;49.940;19.770;2023-06-22T12:54:00;20.92;;;16.20;;
39128;SDS011;24864;49.940;19.770;2023-06-22T12:56:28;19.33;;;17.35;;
39128;SDS011;24864;49.940;19.770;2023-06-22T12:58:56;19.67;;;16.27;;
39128;SDS011;24864;49.940;19.770;2023-06-22T13:01:27;17.77;;;15.98;;
39128;SDS011;24864;49.940;19.770;2023-06-22T13:03:57;17.83;;;16.08;;
39128;SDS011;24864;49.940;19.770;2023-06-22T13:06:25;17.60;;;16.10;;
39128;SDS011;24864;49.940;19.770;2023-06-22T13:08:54;18.88;;;17.27;;
39128;SDS011;24864;49.940;19.770;2023-06-22T13:11:42;20.70;;;16.35;;
39128;SDS011;24864;49.940;19.770;2023-06-22T13:14:10;18.45;;;16.58;;
39128;SDS011;24864;49.940;19.770;2023-06-22T13:16:39;19.10;;;17.15;;
39128;SDS011;24864;49.940;19.770;2023-06-22T13:19:08;17.90;;;16.08;;
39128;SDS011;24864;49.940;19.770;2023-06-22T13:21:36;18.88;;;16.92;;
39128;SDS011;24864;49.940;19.770;2023-06-22T13:24:05;18.85;;;17.05;;
39128;SDS011;24864;49.940;19.770;2023-06-22T13:26:33;18.08;;;16.42;;
39128;SDS011;24864;49.940;19.770;2023-06-22T13:29:02;19.58;;;17.48;;
39128;SDS011;24864;49.940;19.770;2023-06-22T13:31:30;18.08;;;16.38;;
39128;SDS011;24864;49.940;19.770;2023-06-22T13:33:59;18.60;;;16.73;;
39128;SDS011;24864;49.940;19.770;2023-06-22T13:36:27;19.05;;;17.17;;
39128;SDS011;24864;49.940;19.770;2023-06-22T13:38:57;20.75;;;18.00;;
39128;SDS011;24864;49.940;19.770;2023-06-22T13:41:25;19.48;;;17.27;;
39128;SDS011;24864;49.940;19.770;2023-06-22T13:43:53;16.92;;;15.35;;
39128;SDS011;24864;49.940;19.770;2023-06-22T13:46:21;18.40;;;16.83;;
39128;SDS011;24864;49.940;19.770;2023-06-22T13:48:49;17.10;;;15.60;;
39128;SDS011;24864;49.940;19.770;2023-06-22T13:51:23;17.95;;;16.25;;
39128;SDS011;24864;49.940;19.770;2023-06-22T13:53:51;16.88;;;15.50;;
39128;SDS011;24864;49.940;19.770;2023-06-22T13:56:20;16.90;;;15.50;;
39128;SDS011;24864;49.940;19.770;2023-06-22T13:58:49;17.98;;;16.35;;
39128;SDS011;24864;49.940;19.770;2023-06-22T14:01:17;16.75;;;15.15;;
39128;SDS011;24864;49.940;19.770;2023-06-22T14:03:45;16.60;;;15.07;;
39128;SDS011;24864;49.940;19.770;2023-06-22T14:06:15;17.40;;;15.70;;
39128;SDS011;24864;49.940;19.770;2023-06-22T14:08:45;18.15;;;16.42;;
39128;SDS011;24864;49.940;19.770;2023-06-22T14:11:13;17.45;;;15.82;;
39128;SDS011;24864;49.940;19.770;2023-06-22T14:13:41;17.85;;;15.75;;
39128;SDS011;24864;49.940;19.770;2023-06-22T14:16:09;17.00;;;15.23;;
39128;SDS011;24864;49.940;19.770;2023-06-22T14:18:37;17.75;;;15.93;;
39128;SDS011;24864;49.940;19.770;2023-06-22T14:21:05;17.45;;;15.95;;
39128;SDS011;24864;49.940;19.770;2023-06-22T14:23:34;16.13;;;14.50;;
39128;SDS011;24864;49.940;19.770;2023-06-22T14:26:05;16.92;;;15.30;;
39128;SDS011;24864;49.940;19.770;2023-06-22T14:28:33;15.95;;;14.45;;
39128;SDS011;24864;49.940;19.770;2023-06-22T14:31:01;17.55;;;16.05;;
39128;SDS011;24864;49.940;19.770;2023-06-22T14:33:30;16.95;;;15.35;;
39128;SDS011;24864;49.940;19.770;2023-06-22T14:35:57;17.45;;;15.43;;